ADDS METAR Data INFO
IDs: Format: Raw Decoded Include TAF

Data at: 1750 UTC 15 Dec 2017

KPOY 151735Z AUTO 13009KT 10SM CLR M01/M10 A2992 RMK AO2
KPOY 151715Z AUTO 13011KT 10SM CLR M02/M10 A2993 RMK AO2
KPOY 151655Z AUTO 12011G18KT 10SM CLR M02/M10 A2994 RMK AO2
KPOY 151635Z AUTO 12013KT 10SM CLR M03/M10 A2993 RMK AO2
KPOY 151615Z AUTO 11010KT 10SM CLR M03/M10 A2993 RMK AO2
KPOY 151555Z AUTO 13011KT 10SM CLR M03/M10 A2994 RMK AO2
KPOY 151535Z AUTO 13013G18KT 10SM CLR M03/M10 A2993 RMK AO2
KPOY 151515Z AUTO 13012KT 10SM CLR M04/M10 A2993 RMK AO2
KPOY 151455Z AUTO 12012KT 10SM CLR M04/M10 A2995 RMK AO2
KPOY 151435Z AUTO 14015KT 10SM CLR M03/M10 A2993 RMK AO2
KPOY 151415Z AUTO 12011G15KT 10SM CLR M03/M10 A2994 RMK AO2
KPOY 151355Z AUTO 14011KT 10SM CLR M05/M10 A2995 RMK AO2
KPOY 151335Z AUTO 14013KT 10SM CLR M04/M10 A2997 RMK AO2
KPOY 151315Z AUTO 13010KT 10SM CLR M04/M10 A2997 RMK AO2
KPOY 151255Z AUTO 14010KT 10SM CLR M03/M10 A2997 RMK AO2
KPOY 151235Z AUTO 14010KT 10SM CLR M03/M10 A2998 RMK AO2
KPOY 151215Z AUTO 13011KT 10SM CLR M03/M10 A2998 RMK AO2
KPOY 151155Z AUTO 13011KT 10SM CLR M03/M10 A2999 RMK AO2
KPOY 151135Z AUTO 13012G17KT 10SM CLR M04/M09 A2999 RMK AO2
KPOY 151115Z AUTO 12012KT 10SM CLR M03/M09 A2999 RMK AO2
KPOY 151055Z AUTO 13013KT 10SM CLR M03/M09 A3000 RMK AO2
KPOY 151035Z AUTO 13012KT 10SM CLR M04/M09 A3001 RMK AO2
KPOY 151015Z AUTO 15011KT 10SM CLR M04/M09 A3002 RMK AO2
KPOY 150955Z AUTO 13010KT 10SM CLR M05/M09 A3003 RMK AO2
KPOY 150935Z AUTO 14012KT 10SM CLR M04/M09 A3004 RMK AO2
KPOY 150915Z AUTO 13013KT 10SM CLR M04/M08 A3004 RMK AO2
KPOY 150855Z AUTO 13011KT 10SM CLR M05/M09 A3005 RMK AO2
KPOY 150835Z AUTO 12012KT 10SM CLR M04/M09 A3004 RMK AO2
KPOY 150815Z AUTO 12011KT 10SM CLR M04/M09 A3005 RMK AO2
KPOY 150755Z AUTO 13013KT 10SM CLR M04/M08 A3005 RMK AO2
KPOY 150735Z AUTO 13011KT 10SM CLR M04/M09 A3006 RMK AO2
KPOY 150715Z AUTO 13012KT 10SM CLR M03/M09 A3006 RMK AO2
KPOY 150655Z AUTO 13012KT 10SM CLR M03/M09 A3008 RMK AO2
KPOY 150635Z AUTO 12012KT 10SM CLR M03/M09 A3009 RMK AO2
KPOY 150615Z AUTO 12012KT 10SM CLR M03/M10 A3009 RMK AO2
KPOY 150555Z AUTO 11011KT 10SM CLR M02/M10 A3009 RMK AO2
KPOY 150535Z AUTO 12011KT 10SM CLR M02/M10 A3009 RMK AO2
KPOY 150515Z AUTO 11011KT 10SM CLR M01/M10 A3010 RMK AO2
KPOY 150455Z AUTO 11011KT 10SM CLR M02/M10 A3010 RMK AO2
KPOY 150435Z AUTO 13011KT 10SM CLR M01/M10 A3010 RMK AO2
KPOY 150415Z AUTO 12010KT 10SM CLR M01/M10 A3011 RMK AO2
KPOY 150355Z AUTO 12009KT 10SM CLR M01/M11 A3012 RMK AO2
KPOY 150335Z AUTO 12008KT 10SM CLR M01/M10 A3013 RMK AO2
KPOY 150315Z AUTO 13009KT 10SM CLR M02/M10 A3013 RMK AO2
KPOY 150255Z AUTO 12009KT 10SM CLR M02/M10 A3014 RMK AO2
KPOY 150235Z AUTO 12008KT 10SM CLR M01/M10 A3014 RMK AO2
KPOY 150215Z AUTO 15008KT 10SM CLR M01/M10 A3015 RMK AO2
KPOY 150155Z AUTO 15008KT 10SM CLR 00/M11 A3016 RMK AO2
KPOY 150135Z AUTO 15008KT 10SM CLR 00/M11 A3016 RMK AO2
KPOY 150115Z AUTO 15008KT 10SM CLR 00/M10 A3016 RMK AO2
KPOY 150055Z AUTO 16009KT 10SM CLR 00/M10 A3016 RMK AO2
KPOY 150035Z AUTO 17008KT 10SM CLR 00/M10 A3017 RMK AO2
KPOY 150015Z AUTO 16008KT 10SM CLR M01/M10 A3017 RMK AO2
KPOY 142355Z AUTO 15006KT 10SM CLR 00/M10 A3019 RMK AO2
KPOY 142335Z AUTO 14006KT 10SM CLR 00/M10 A3019 RMK AO2
KPOY 142315Z AUTO 13005KT 10SM CLR 01/M09 A3019 RMK AO2
KPOY 142255Z AUTO 13004KT 10SM CLR 02/M10 A3019 RMK AO2
KPOY 142235Z AUTO 00000KT 10SM CLR 03/M09 A3019 RMK AO2
KPOY 142215Z AUTO 01006KT 10SM CLR 03/M09 A3019 RMK AO2
KPOY 142155Z AUTO 36005KT 10SM CLR 03/M09 A3020 RMK AO2
KPOY 142135Z AUTO 34008KT 10SM CLR 03/M09 A3022 RMK AO2
KPOY 142115Z AUTO 34008KT 10SM CLR 03/M09 A3022 RMK AO2
KPOY 142055Z AUTO 31004KT 10SM CLR 03/M09 A3022 RMK AO2
KPOY 142035Z AUTO 30005KT 10SM CLR 03/M08 A3023 RMK AO2
KPOY 142015Z AUTO 29003KT 10SM CLR 03/M08 A3023 RMK AO2
KPOY 141955Z AUTO 30004KT 10SM CLR 03/M07 A3024 RMK AO2
KPOY 141935Z AUTO 28006KT 10SM CLR 02/M07 A3025 RMK AO2
KPOY 141915Z AUTO 30005KT 10SM CLR 02/M07 A3026 RMK AO2
KPOY 141855Z AUTO 28007KT 10SM CLR 02/M07 A3026 RMK AO2
KPOY 141835Z AUTO 27006KT 10SM CLR 02/M07 A3028 RMK AO2
KPOY 141815Z AUTO 32004KT 10SM CLR 02/M06 A3029 RMK AO2
KPOY 141755Z AUTO 34008KT 10SM CLR 01/M06 A3029 RMK AO2
KPOY 141735Z AUTO 30005KT 10SM CLR 01/M06 A3030 RMK AO2
KPOY 141715Z AUTO 33006KT 10SM CLR 00/M06 A3030 RMK AO2
KPOY 141655Z AUTO 35012KT 10SM CLR 00/M06 A3029 RMK AO2
KPOY 141635Z AUTO 35014KT 10SM CLR 00/M07 A3029 RMK AO2
KPOY 141615Z AUTO 35015KT 10SM CLR 00/M07 A3029 RMK AO2
KPOY 141555Z AUTO 35013KT 10SM CLR 00/M08 A3028 RMK AO2
KPOY 141535Z AUTO 34011G16KT 10SM CLR 00/M08 A3029 RMK AO2
KPOY 141515Z AUTO 36010KT 10SM CLR M01/M08 A3028 RMK AO2
KPOY 141455Z AUTO 35006KT 10SM CLR M01/M09 A3028 RMK AO2
KPOY 141435Z AUTO 36006KT 10SM CLR M02/M09 A3027 RMK AO2
KPOY 141415Z AUTO 34009KT 10SM CLR M01/M09 A3027 RMK AO2
KPOY 141355Z AUTO 31007KT 10SM CLR M03/M10 A3027 RMK AO2
KPOY 141335Z AUTO 31009KT 10SM CLR M02/M09 A3027 RMK AO2
KPOY 141315Z AUTO 30009KT 10SM CLR M03/M10 A3027 RMK AO2
KPOY 141255Z AUTO 32009KT 10SM CLR M03/M09 A3026 RMK AO2
KPOY 141235Z AUTO 32009KT 10SM CLR M02/M09 A3026 RMK AO2
KPOY 141215Z AUTO 32009KT 10SM CLR M02/M08 A3025 RMK AO2
KPOY 141155Z AUTO 32012KT 10SM CLR M02/M08 A3026 RMK AO2
KPOY 141135Z AUTO 32013G24KT 10SM CLR M01/M08 A3026 RMK AO2
KPOY 141115Z AUTO 32013KT 10SM CLR M01/M08 A3026 RMK AO2
KPOY 141055Z AUTO 32010KT 10SM CLR M02/M08 A3026 RMK AO2
KPOY 141035Z AUTO 33008KT 10SM CLR M02/M08 A3026 RMK AO2
KPOY 141015Z AUTO 36011KT 10SM CLR M02/M07 A3025 RMK AO2
KPOY 140955Z AUTO 34011KT 10SM CLR M02/M07 A3025 RMK AO2
KPOY 140935Z AUTO 33012KT 10SM CLR M02/M06 A3025 RMK AO2
KPOY 140915Z AUTO 33013KT 10SM CLR M02/M06 A3025 RMK AO2
KPOY 140855Z AUTO 33015KT 10SM CLR M02/M06 A3024 RMK AO2
KPOY 140835Z AUTO 32010KT 10SM CLR M03/M07 A3024 RMK AO2
KPOY 140815Z AUTO 30011KT 10SM CLR M04/M07 A3024 RMK AO2
KPOY 140755Z AUTO 32008KT 10SM SCT060 M03/M06 A3023 RMK AO2
KPOY 140735Z AUTO 33010KT 10SM BKN060 M01/M05 A3023 RMK AO2
KPOY 140715Z AUTO 31007KT 10SM SCT060 M03/M05 A3023 RMK AO2
KPOY 140655Z AUTO 31004KT 10SM SCT060 M03/M05 A3024 RMK AO2
KPOY 140635Z AUTO 31008KT 10SM SCT060 M03/M05 A3024 RMK AO2
KPOY 140615Z AUTO 30007KT 10SM OVC060 M01/M03 A3024 RMK AO2
KPOY 140555Z AUTO 31006KT 10SM OVC060 M01/M03 A3024 RMK AO2